Time;durP1;ratioP1;P1;durP2;ratioP2;P2;SDS_P1;SDS_P2;PMS_P1;PMS_P2;Temp;Humidity;BMP_temperature;BMP_pressure;BME280_temperature;BME280_humidity;BME280_pressure;Samples;Min_cycle;Max_cycle;Signal;HPM_P1;HPM_P2
2022/06/20 00:00:43;;;;;;;;;;;;;;;24.65;47.38;95247.69;2060282;28;1513;-60
2022/06/20 00:01:45;;;;;;;;;;;;;;;24.65;47.40;95239.63;2057406;28;1122;-59
2022/06/20 00:02:49;;;;;;;;;;;;;;;24.65;48.16;95242.31;2054463;28;1297;-54
2022/06/20 00:03:52;;;;;;;;;;;;;;;24.66;47.85;95246.63;2052406;28;1442;-57
2022/06/20 00:04:56;;;;;;;;;;;;;;;24.66;47.47;95246.63;2057492;28;987;-61
2022/06/20 00:05:59;;;;;;;;;;;;;;;24.68;47.86;95252.59;2057757;28;2090;-59
2022/06/20 00:07:00;;;;;;;;;;;;;;;24.67;47.79;95248.28;2063500;28;1180;-61
2022/06/20 00:08:03;;;;;;;;;;;;;;;24.67;47.41;95244.75;2072796;28;1978;-61
2022/06/20 00:09:06;;;;;;;;;;;;;;;24.67;47.91;95240.22;2057746;28;1847;-57
2022/06/20 00:10:10;;;;;;;;;;;;;;;24.67;47.53;95242.06;2060442;28;1649;-61
2022/06/20 00:11:13;;;;;;;;;;;;;;;24.67;47.58;95240.22;2057069;28;1501;-61
2022/06/20 00:12:17;;;;;;;;;;;;;;;24.66;47.31;95243.13;2064458;28;1918;-60
2022/06/20 00:13:20;;;;;;;;;;;;;;;24.67;47.61;95239.38;2061767;28;1565;-55
2022/06/20 00:14:23;;;;;;;;;;;;;;;24.67;47.65;95244.75;2052815;28;1078;-58
2022/06/20 00:15:26;;;;;;;;;;;;;;;24.65;47.24;95245.00;2052654;28;2013;-61
2022/06/20 00:16:31;;;;;;;;;;;;;;;24.66;47.34;95246.63;2057541;28;1967;-60
2022/06/20 00:17:33;;;;;;;;;;;;;;;24.66;47.40;95246.63;2057494;28;1897;-61
2022/06/20 00:18:36;;;;;;;;;;;;;;;24.65;47.35;95247.69;2061783;28;1918;-61
2022/06/20 00:19:39;;;;;;;;;;;;;;;24.65;47.29;95244.19;2065488;28;1132;-61
2022/06/20 00:20:44;;;;;;;;;;;;;;;24.65;47.45;95241.50;2065270;28;1078;-61
2022/06/20 00:21:46;;;;;;;;;;;;;;;24.65;47.40;95244.19;2064780;28;1181;-61
2022/06/20 00:22:49;;;;;;;;;;;;;;;24.65;47.39;95245.00;2062823;28;1509;-60
2022/06/20 00:23:50;;;;;;;;;;;;;;;24.65;47.06;95245.00;2063174;28;1880;-60
2022/06/20 00:24:53;;;;;;;;;;;;;;;24.65;47.22;95236.94;2065513;28;1049;-61
2022/06/20 00:25:55;;;;;;;;;;;;;;;24.65;47.01;95245.00;2058966;28;1546;-61
2022/06/20 00:26:58;;;;;;;;;;;;;;;24.65;47.30;95238.81;2060985;28;1169;-61
2022/06/20 00:28:00;;;;;;;;;;;;;;;24.65;47.55;95239.63;2064902;28;1920;-61
2022/06/20 00:29:03;;;;;;;;;;;;;;;24.65;47.60;95241.50;2057435;28;1859;-61
2022/06/20 00:30:06;;;;;;;;;;;;;;;24.61;47.01;95238.44;2057779;28;1978;-70
2022/06/20 00:31:08;;;;;;;;;;;;;;;24.55;47.60;95236.69;2065468;28;1164;-60
2022/06/20 00:32:11;;;;;;;;;;;;;;;24.50;47.54;95228.50;2064965;28;1931;-59
2022/06/20 00:33:14;;;;;;;;;;;;;;;24.48;47.80;95241.34;2057391;28;1057;-61
2022/06/20 00:34:17;;;;;;;;;;;;;;;24.44;47.70;95238.28;2057481;28;1355;-60
2022/06/20 00:35:19;;;;;;;;;;;;;;;24.44;47.53;95238.28;2057258;28;1118;-56
2022/06/20 00:36:23;;;;;;;;;;;;;;;24.43;48.04;95235.84;2056832;28;2009;-59
2022/06/20 00:37:25;;;;;;;;;;;;;;;24.42;47.67;95235.03;2056729;28;1528;-55
2022/06/20 00:38:29;;;;;;;;;;;;;;;24.42;47.67;95245.78;2061382;28;2032;-59
2022/06/20 00:39:31;;;;;;;;;;;;;;;24.41;47.92;95243.31;2064007;28;1887;-61
2022/06/20 00:40:35;;;;;;;;;;;;;;;24.41;48.04;95240.63;2059669;28;1911;-60
2022/06/20 00:41:37;;;;;;;;;;;;;;;24.48;47.85;95249.41;2057370;28;1129;-57
2022/06/20 00:42:40;;;;;;;;;;;;;;;24.53;48.19;95246.84;2057499;28;1861;-59
2022/06/20 00:43:45;;;;;;;;;;;;;;;24.56;47.71;95246.41;2057291;28;1491;-59
2022/06/20 00:44:49;;;;;;;;;;;;;;;24.58;47.85;95244.28;2062680;28;1861;-60
2022/06/20 00:45:53;;;;;;;;;;;;;;;24.61;48.14;95246.50;2065611;28;1014;-69
2022/06/20 00:46:58;;;;;;;;;;;;;;;24.64;47.29;95245.22;2065541;28;986;-58
2022/06/20 00:48:03;;;;;;;;;;;;;;;24.64;47.68;95248.72;2065261;28;2025;-58
2022/06/20 00:49:08;;;;;;;;;;;;;;;24.66;48.03;95235.88;2055678;28;1892;-59
2022/06/20 00:50:12;;;;;;;;;;;;;;;24.56;47.71;95235.66;2065165;28;1126;-60
2022/06/20 00:51:18;;;;;;;;;;;;;;;24.50;47.76;95237.38;2058746;28;1930;-60
2022/06/20 00:52:25;;;;;;;;;;;;;;;24.48;47.83;95246.72;2057770;28;1644;-58
2022/06/20 00:53:32;;;;;;;;;;;;;;;24.45;48.02;95239.94;2059546;28;1575;-59
2022/06/20 00:54:37;;;;;;;;;;;;;;;24.56;47.53;95241.84;2057517;28;1033;-58
2022/06/20 00:55:42;;;;;;;;;;;;;;;24.63;47.91;95241.72;2059477;28;1919;-58
2022/06/20 00:56:50;;;;;;;;;;;;;;;24.66;47.98;95238.56;2063418;28;1980;-58
2022/06/20 00:57:55;;;;;;;;;;;;;;;24.63;47.98;95244.41;2058306;28;1563;-61
2022/06/20 00:58:59;;;;;;;;;;;;;;;24.56;48.28;95251.78;2057600;28;1084;-61
2022/06/20 01:00:07;;;;;;;;;;;;;;;24.54;47.69;95249.28;2052856;28;1500;-61
2022/06/20 01:01:11;;;;;;;;;;;;;;;24.55;48.48;95250.09;2053854;28;1742;-61
2022/06/20 01:02:18;;;;;;;;;;;;;;;24.55;47.96;95244.75;2058450;28;1638;-62
2022/06/20 01:03:21;;;;;;;;;;;;;;;24.54;48.09;95241.25;2064807;28;1915;-61
2022/06/20 01:04:27;;;;;;;;;;;;;;;24.56;48.06;95247.22;2062064;28;1939;-71
2022/06/20 01:05:32;;;;;;;;;;;;;;;24.57;48.28;95248.03;2063294;28;1523;-61
2022/06/20 01:06:36;;;;;;;;;;;;;;;24.57;47.66;95243.47;2062507;28;1110;-61
2022/06/20 01:07:42;;;;;;;;;;;;;;;24.58;47.80;95244.28;2062411;28;1542;-61
2022/06/20 01:08:45;;;;;;;;;;;;;;;24.57;47.95;95243.47;2057188;28;1525;-61
2022/06/20 01:09:50;;;;;;;;;;;;;;;24.58;47.96;95242.41;2057661;28;1089;-59
2022/06/20 01:10:55;;;;;;;;;;;;;;;24.58;48.24;95236.22;2056036;28;1986;-61
2022/06/20 01:12:02;;;;;;;;;;;;;;;24.58;47.58;95238.91;2052035;28;1173;-59
2022/06/20 01:13:07;;;;;;;;;;;;;;;24.57;48.00;95230.03;2057015;28;1066;-61
2022/06/20 01:14:19;;;;;;;;;;;;;;;24.57;48.20;95231.91;2057385;28;1353;-61
2022/06/20 01:15:23;;;;;;;;;;;;;;;24.57;48.64;95232.72;2060752;28;1981;-56
2022/06/20 01:16:27;;;;;;;;;;;;;;;24.57;48.28;95229.22;2065556;28;1084;-55
2022/06/20 01:17:32;;;;;;;;;;;;;;;24.57;48.22;95224.66;2063828;28;1958;-55
2022/06/20 01:18:35;;;;;;;;;;;;;;;24.58;48.25;95223.59;2065378;28;1121;-55
2022/06/20 01:19:46;;;;;;;;;;;;;;;24.58;48.13;95222.78;2063515;28;1499;-57
2022/06/20 01:20:48;;;;;;;;;;;;;;;24.57;48.76;95219.28;2057270;28;1954;-57
2022/06/20 01:21:51;;;;;;;;;;;;;;;24.58;48.51;95222.78;2057682;28;1080;-53
2022/06/20 01:22:58;;;;;;;;;;;;;;;24.59;47.72;95224.44;2051631;28;1041;-56
2022/06/20 01:24:06;;;;;;;;;;;;;;;24.59;48.63;95221.75;2056555;28;1133;-55
2022/06/20 01:25:19;;;;;;;;;;;;;;;24.59;48.67;95224.44;2057320;28;1113;-55
2022/06/20 01:26:28;;;;;;;;;;;;;;;24.60;48.81;95220.69;2057548;28;1052;-55
2022/06/20 01:27:33;;;;;;;;;;;;;;;24.57;48.31;95227.34;2056918;28;1476;-55
2022/06/20 01:28:38;;;;;;;;;;;;;;;24.60;48.18;95223.38;2057630;28;1576;-54
2022/06/20 01:29:40;;;;;;;;;;;;;;;24.58;48.55;95222.78;2065390;28;1156;-55
2022/06/20 01:30:44;;;;;;;;;;;;;;;24.58;48.48;95220.09;2059232;28;2027;-55
2022/06/20 01:31:49;;;;;;;;;;;;;;;24.58;48.83;95222.78;2061508;28;1473;-56
2022/06/20 01:32:51;;;;;;;;;;;;;;;24.58;49.14;95230.84;2064782;28;1919;-54
2022/06/20 01:33:55;;;;;;;;;;;;;;;24.58;48.06;95222.78;2058093;28;1401;-55
2022/06/20 01:34:58;;;;;;;;;;;;;;;24.59;48.49;95219.06;2053464;28;1381;-58
2022/06/20 01:37:25;;;;;;;;;;;;;;;24.58;48.31;95225.47;2058829;28;1977;-54
2022/06/20 01:38:28;;;;;;;;;;;;;;;24.58;48.55;95222.78;2058904;28;1018;-56
2022/06/20 01:39:31;;;;;;;;;;;;;;;24.58;48.55;95225.47;2058713;28;1548;-56
2022/06/20 01:40:34;;;;;;;;;;;;;;;24.59;48.26;95221.75;2064765;28;1866;-54
2022/06/20 01:43:01;;;;;;;;;;;;;;;24.52;49.10;95229.91;2066380;28;779;-51
2022/06/20 01:44:04;;;;;;;;;;;;;;;24.50;48.59;95228.50;2066642;28;1002;-51
2022/06/20 01:45:57;;;;;;;;;;;;;;;24.47;49.49;95234.31;2062057;28;1135;-52
2022/06/20 01:46:33;;;;;;;;;;;;;;;24.44;49.23;95224.84;2062025;28;1306;-50
2022/06/20 01:47:36;;;;;;;;;;;;;;;24.43;49.07;95219.72;2064291;28;1437;-49
2022/06/20 01:48:40;;;;;;;;;;;;;;;24.42;49.81;95220.78;2066638;28;1109;-55
2022/06/20 01:49:45;;;;;;;;;;;;;;;24.41;49.68;95216.44;2066156;28;1024;-55
2022/06/20 01:50:47;;;;;;;;;;;;;;;24.41;49.18;95222.63;2065003;28;2029;-54
2022/06/20 01:51:57;;;;;;;;;;;;;;;24.41;49.27;95227.19;2059024;28;1664;-56
2022/06/20 01:53:01;;;;;;;;;;;;;;;24.41;49.32;95222.63;2058660;28;1037;-53
2022/06/20 01:54:04;;;;;;;;;;;;;;;24.41;49.09;95227.19;2058414;28;1037;-53
2022/06/20 01:55:09;;;;;;;;;;;;;;;24.41;49.39;95233.38;2058634;28;1972;-51
2022/06/20 01:56:11;;;;;;;;;;;;;;;24.40;49.26;95225.56;2058795;28;1011;-52
2022/06/20 01:57:15;;;;;;;;;;;;;;;24.39;49.24;95229.28;2050006;28;2018;-52
2022/06/20 01:58:21;;;;;;;;;;;;;;;24.39;49.26;95229.28;2058375;28;1961;-54
2022/06/20 01:59:26;;;;;;;;;;;;;;;24.38;48.83;95227.66;2065650;28;1444;-51
2022/06/20 02:00:27;;;;;;;;;;;;;;;24.38;48.91;95216.91;2065760;28;1801;-52
2022/06/20 02:01:33;;;;;;;;;;;;;;;24.37;49.37;95220.66;2064221;28;1815;-50
2022/06/20 02:02:36;;;;;;;;;;;;;;;24.37;49.02;95220.66;2058459;28;1181;-50
2022/06/20 02:03:41;;;;;;;;;;;;;;;24.39;49.49;95223.91;2058390;28;1102;-53
2022/06/20 02:04:49;;;;;;;;;;;;;;;24.37;49.08;95223.34;2057948;28;1010;-52
2022/06/20 02:05:54;;;;;;;;;;;;;;;24.37;49.35;95223.34;2058449;28;1164;-54
2022/06/20 02:06:56;;;;;;;;;;;;;;;24.37;49.32;95223.34;2058520;28;1077;-53
2022/06/20 02:08:00;;;;;;;;;;;;;;;24.34;49.43;95213.88;2053844;28;1184;-56
2022/06/20 02:09:04;;;;;;;;;;;;;;;24.35;49.08;95220.88;2053443;28;1369;-54
2022/06/20 02:10:08;;;;;;;;;;;;;;;24.37;48.89;95223.34;2058438;28;1979;-54
2022/06/20 02:11:16;;;;;;;;;;;;;;;24.30;44.41;95216.22;2061652;28;1795;-53
2022/06/20 02:12:19;;;;;;;;;;;;;;;24.29;46.25;95219.94;2066201;28;1006;-57
2022/06/20 02:13:24;;;;;;;;;;;;;;;24.26;45.25;95217.72;2066437;28;1124;-57
2022/06/20 02:14:32;;;;;;;;;;;;;;;24.30;44.44;95224.28;2062386;28;1471;-52
2022/06/20 02:15:34;;;;;;;;;;;;;;;24.32;44.52;95222.16;2061228;28;1739;-52
2022/06/20 02:16:39;;;;;;;;;;;;;;;24.34;43.14;95224.63;2060548;28;1964;-52
2022/06/20 02:17:42;;;;;;;;;;;;;;;24.32;43.34;95224.03;2059066;28;1906;-55
2022/06/20 02:18:47;;;;;;;;;;;;;;;24.27;43.79;95216.69;2058224;28;1186;-55
2022/06/20 02:19:51;;;;;;;;;;;;;;;24.17;43.06;95218.28;2053002;28;1894;-52
2022/06/20 02:20:56;;;;;;;;;;;;;;;24.11;43.13;95225.34;2064963;28;1947;-52
2022/06/20 02:21:59;;;;;;;;;;;;;;;24.07;43.18;95221.47;2063379;28;1919;-54
2022/06/20 02:23:03;;;;;;;;;;;;;;;24.03;43.34;95225.66;2066349;28;1025;-53
2022/06/20 02:24:06;;;;;;;;;;;;;;;23.97;43.31;95218.53;2066299;28;1081;-68
2022/06/20 02:25:13;;;;;;;;;;;;;;;23.96;42.94;95219.56;2066226;28;1037;-54
2022/06/20 02:26:16;;;;;;;;;;;;;;;23.90;42.82;95222.13;2066383;28;1180;-53
2022/06/20 02:27:21;;;;;;;;;;;;;;;23.87;42.64;95222.59;2066081;28;1180;-52
2022/06/20 02:28:27;;;;;;;;;;;;;;;23.81;42.16;95219.97;2065483;28;1616;-51
2022/06/20 02:29:30;;;;;;;;;;;;;;;23.79;42.94;95220.22;2066416;28;1081;-54
2022/06/20 02:30:34;;;;;;;;;;;;;;;23.76;42.00;95225.19;2058774;28;2012;-54
2022/06/20 02:31:37;;;;;;;;;;;;;;;23.27;40.71;95224.31;2058685;28;1971;-54
2022/06/20 02:32:40;;;;;;;;;;;;;;;22.96;41.05;95226.94;2058329;28;1025;-54
2022/06/20 02:33:43;;;;;;;;;;;;;;;22.53;40.83;95219.63;2058262;28;1152;-53
2022/06/20 02:34:46;;;;;;;;;;;;;;;22.42;41.16;95217.66;2061580;28;1873;-52
2022/06/20 02:35:48;;;;;;;;;;;;;;;21.97;43.38;95217.81;2066146;28;1671;-53
2022/06/20 02:36:50;;;;;;;;;;;;;;;21.90;41.74;95217.78;2066228;28;1104;-51
2022/06/20 02:37:53;;;;;;;;;;;;;;;21.81;41.35;95223.63;2066277;28;1997;-52
2022/06/20 02:38:55;;;;;;;;;;;;;;;21.70;41.17;95216.28;2066449;28;1045;-52
2022/06/20 02:39:59;;;;;;;;;;;;;;;21.72;41.63;95215.03;2064790;28;1926;-63
2022/06/20 02:41:01;;;;;;;;;;;;;;;21.79;41.06;95214.97;2063698;28;1975;-53
2022/06/20 02:42:06;;;;;;;;;;;;;;;21.96;40.90;95221.50;2061714;28;985;-52
2022/06/20 02:43:12;;;;;;;;;;;;;;;21.89;40.58;95216.16;2061822;28;1167;-54
2022/06/20 02:44:18;;;;;;;;;;;;;;;21.81;40.38;95218.28;2065897;28;1002;-55
2022/06/20 02:45:21;;;;;;;;;;;;;;;21.85;40.81;95220.31;2066044;28;1934;-53
2022/06/20 02:46:27;;;;;;;;;;;;;;;21.81;40.40;95220.94;2065546;28;1532;-54
2022/06/20 02:47:30;;;;;;;;;;;;;;;21.72;40.23;95214.22;2062691;28;1500;-53
2022/06/20 02:48:34;;;;;;;;;;;;;;;21.47;40.80;95214.13;2058224;28;2083;-54
2022/06/20 02:49:36;;;;;;;;;;;;;;;21.47;40.82;95211.44;2057789;28;1080;-54
2022/06/20 02:50:43;;;;;;;;;;;;;;;21.46;40.48;95210.63;2058321;28;998;-55
2022/06/20 02:51:49;;;;;;;;;;;;;;;21.44;40.59;95208.16;2059101;28;1760;-55
2022/06/20 02:52:53;;;;;;;;;;;;;;;21.37;40.64;95212.72;2058148;28;1113;-55
2022/06/20 02:53:56;;;;;;;;;;;;;;;21.39;40.53;95205.28;2052072;28;1523;-55
2022/06/20 02:55:00;;;;;;;;;;;;;;;21.41;40.53;95205.91;2065073;28;1647;-56
2022/06/20 02:56:03;;;;;;;;;;;;;;;21.43;40.54;95201.19;2066329;28;1109;-54
2022/06/20 02:57:10;;;;;;;;;;;;;;;21.36;40.34;95204.91;2065794;28;1265;-55
2022/06/20 02:58:13;;;;;;;;;;;;;;;21.26;40.75;95208.03;2065639;28;1977;-57
2022/06/20 02:59:19;;;;;;;;;;;;;;;21.29;40.55;95202.28;2066353;28;1068;-54
2022/06/20 03:00:25;;;;;;;;;;;;;;;21.27;40.38;95208.84;2066216;28;1018;-56
2022/06/20 03:01:34;;;;;;;;;;;;;;;21.36;40.21;95207.56;2064871;28;1859;-53
2022/06/20 03:02:37;;;;;;;;;;;;;;;21.31;40.56;95200.19;2058126;28;1828;-54
2022/06/20 03:03:41;;;;;;;;;;;;;;;21.23;40.38;95203.94;2057761;28;1003;-53
2022/06/20 03:04:44;;;;;;;;;;;;;;;21.30;40.64;95201.22;2053428;28;1992;-57
2022/06/20 03:05:47;;;;;;;;;;;;;;;21.29;40.36;95198.78;2053621;28;1140;-55
2022/06/20 03:06:57;;;;;;;;;;;;;;;21.29;40.53;95210.28;2059584;28;1954;-54
2022/06/20 03:08:00;;;;;;;;;;;;;;;21.23;40.78;95205.78;2063905;28;1886;-54
2022/06/20 03:09:02;;;;;;;;;;;;;;;21.41;40.47;95203.25;2061856;28;1524;-62
2022/06/20 03:10:11;;;;;;;;;;;;;;;21.29;40.36;95199.59;2069437;28;1335;-54
2022/06/20 03:11:13;;;;;;;;;;;;;;;21.35;40.60;95204.09;2072087;28;1942;-52
2022/06/20 03:12:16;;;;;;;;;;;;;;;21.35;40.62;95213.97;2058492;28;1876;-53
2022/06/20 03:13:19;;;;;;;;;;;;;;;21.34;40.69;95213.16;2059811;28;1774;-55
2022/06/20 03:14:28;;;;;;;;;;;;;;;21.44;40.74;95210.00;2066088;28;1297;-57
2022/06/20 03:15:30;;;;;;;;;;;;;;;21.46;40.67;95213.31;2065496;28;1922;-55
2022/06/20 03:16:34;;;;;;;;;;;;;;;21.42;40.69;95209.41;2054713;28;1751;-54
2022/06/20 03:17:36;;;;;;;;;;;;;;;21.41;40.75;95207.78;2059418;28;1584;-52
2022/06/20 03:18:41;;;;;;;;;;;;;;;21.34;40.61;95202.47;2065372;28;2025;-53
2022/06/20 03:19:45;;;;;;;;;;;;;;;21.30;40.65;95211.09;2065534;28;1963;-53
2022/06/20 03:20:48;;;;;;;;;;;;;;;21.27;40.59;95211.53;2066086;28;1037;-55
2022/06/20 03:21:50;;;;;;;;;;;;;;;21.48;41.30;95200.53;2064264;28;1765;-61
2022/06/20 03:22:58;;;;;;;;;;;;;;;21.56;40.09;95202.97;2061647;28;1640;-58
2022/06/20 03:24:01;;;;;;;;;;;;;;;21.67;40.51;95202.28;2065708;28;1370;-54
2022/06/20 03:25:03;;;;;;;;;;;;;;;;;;2074020;28;1124;-56
2022/06/20 03:26:10;;;;;;;;;;;;;;;21.38;41.48;95205.53;2072430;28;1926;-53
2022/06/20 03:27:15;;;;;;;;;;;;;;;21.19;42.39;95194.69;2064639;28;1624;-53
2022/06/20 03:28:18;;;;;;;;;;;;;;;21.15;42.44;95203.31;2069358;28;1280;-52
2022/06/20 03:29:39;;;;;;;;;;;;;;;20.96;43.24;95205.00;2074148;28;1643;-53
2022/06/20 03:30:41;;;;;;;;;;;;;;;20.96;44.28;95199.66;2063431;28;1927;-54
2022/06/20 03:31:44;;;;;;;;;;;;;;;21.07;43.91;95209.69;2058125;28;1010;-53
2022/06/20 03:32:46;;;;;;;;;;;;;;;20.88;44.21;95202.53;2057995;28;1094;-72
2022/06/20 03:33:49;;;;;;;;;;;;;;;20.70;44.24;95206.69;2057378;28;1172;-52
2022/06/20 03:34:51;;;;;;;;;;;;;;;20.61;44.52;95202.59;2057918;28;1093;-53
2022/06/20 03:35:55;;;;;;;;;;;;;;;20.50;45.25;95196.03;2057553;28;1132;-52
2022/06/20 03:36:58;;;;;;;;;;;;;;;20.47;44.94;95203.63;2070608;28;1134;-51
2022/06/20 03:38:01;;;;;;;;;;;;;;;20.51;44.36;95204.84;2074056;28;1113;-54
2022/06/20 03:39:05;;;;;;;;;;;;;;;20.44;45.05;95206.72;2060085;28;1899;-58
2022/06/20 03:40:07;;;;;;;;;;;;;;;20.43;45.41;95208.56;2064133;28;1968;-51
2022/06/20 03:41:11;;;;;;;;;;;;;;;20.55;44.91;95203.44;2065536;28;1418;-50
2022/06/20 03:42:14;;;;;;;;;;;;;;;20.71;44.53;95205.66;2060665;28;1574;-54
2022/06/20 03:43:18;;;;;;;;;;;;;;;20.82;44.24;95206.88;2065849;28;2035;-52
2022/06/20 03:44:24;;;;;;;;;;;;;;;20.76;45.09;95205.03;2066142;28;1037;-51
2022/06/20 03:45:31;;;;;;;;;;;;;;;20.76;44.93;95211.19;2065640;28;1278;-54
2022/06/20 03:46:38;;;;;;;;;;;;;;;20.80;44.61;95206.28;2060776;28;1490;-53
2022/06/20 03:47:42;;;;;;;;;;;;;;;20.72;45.36;95204.66;2063028;28;1257;-49
2022/06/20 03:48:48;;;;;;;;;;;;;;;20.60;45.36;95211.66;2064925;28;1901;-54
2022/06/20 03:49:53;;;;;;;;;;;;;;;20.29;46.42;95212.25;2061511;28;1038;-52
2022/06/20 03:50:59;;;;;;;;;;;;;;;20.21;46.35;95215.09;2061434;28;1371;-60
2022/06/20 03:52:02;;;;;;;;;;;;;;;20.22;46.90;95217.56;2066131;28;978;-55
2022/06/20 03:53:09;;;;;;;;;;;;;;;20.14;47.38;95220.41;2065886;28;1024;-52
2022/06/20 03:54:15;;;;;;;;;;;;;;;20.04;46.74;95217.34;2059928;28;1434;-56
2022/06/20 03:55:26;;;;;;;;;;;;;;;19.99;46.73;95215.28;2057688;28;1100;-54
2022/06/20 03:56:29;;;;;;;;;;;;;;;20.11;46.53;95226.16;2057466;28;1541;-50
2022/06/20 03:57:34;;;;;;;;;;;;;;;20.14;47.19;95228.41;2058394;28;1456;-58
2022/06/20 03:58:38;;;;;;;;;;;;;;;20.22;47.36;95224.75;2065887;28;1029;-61
2022/06/20 03:59:44;;;;;;;;;;;;;;;20.17;47.20;95227.19;2065834;28;1975;-53
2022/06/20 04:00:50;;;;;;;;;;;;;;;20.36;47.54;95225.56;2065364;28;2025;-58
2022/06/20 04:01:57;;;;;;;;;;;;;;;20.45;47.92;95229.72;2056968;28;1327;-59
2022/06/20 04:03:02;;;;;;;;;;;;;;;20.42;47.57;95219.44;2065087;28;1197;-62
2022/06/20 04:04:07;;;;;;;;;;;;;;;20.39;47.37;95227.88;2057888;28;1959;-51
2022/06/20 04:05:12;;;;;;;;;;;;;;;20.32;48.10;95227.84;2061216;28;2076;-57
2022/06/20 04:06:19;;;;;;;;;;;;;;;20.15;48.22;95227.41;2065117;28;1400;-50
2022/06/20 04:07:23;;;;;;;;;;;;;;;20.12;47.82;95219.81;2065809;28;1169;-53
2022/06/20 04:10:57;;;;;;;;;;;;;;;20.10;48.01;95224.53;2060668;28;1452;-55
2022/06/20 04:11:18;;;;;;;;;;;;;;;19.98;48.10;95218.16;2064782;28;1093;-53
2022/06/20 04:12:22;;;;;;;;;;;;;;;19.94;47.88;95224.91;2064463;28;1455;-54
2022/06/20 04:13:26;;;;;;;;;;;;;;;20.01;47.79;95217.75;2052574;28;1470;-52
2022/06/20 04:14:33;;;;;;;;;;;;;;;20.09;47.60;95220.22;2064502;28;1363;-53
2022/06/20 04:15:38;;;;;;;;;;;;;;;20.01;47.70;95213.22;2064632;28;1591;-55
2022/06/20 04:16:44;;;;;;;;;;;;;;;19.96;47.67;95223.69;2065534;28;1113;-55
2022/06/20 04:19:15;;;;;;;;;;;;;;;19.81;48.61;95223.88;2061490;28;1557;-51
2022/06/20 04:20:19;;;;;;;;;;;;;;;19.76;47.78;95214.81;2057555;28;1538;-52
2022/06/20 04:21:24;;;;;;;;;;;;;;;19.73;48.03;95210.72;2064663;28;1666;-50
2022/06/20 04:22:29;;;;;;;;;;;;;;;19.68;47.59;95213.16;2057620;28;1083;-54
2022/06/20 04:23:35;;;;;;;;;;;;;;;19.70;48.31;95215.63;2057542;28;1158;-54
2022/06/20 04:24:40;;;;;;;;;;;;;;;19.68;48.08;95213.16;2051419;28;1928;-53
2022/06/20 04:25:45;;;;;;;;;;;;;;;19.76;47.93;95217.50;2055907;28;1239;-53
2022/06/20 04:26:51;;;;;;;;;;;;;;;19.72;47.16;95214.41;2056488;28;1284;-52
2022/06/20 04:27:56;;;;;;;;;;;;;;;19.70;46.96;95210.31;2057543;28;1356;-51
2022/06/20 04:29:02;;;;;;;;;;;;;;;19.69;47.21;95214.81;2056979;28;1009;-55
2022/06/20 04:30:05;;;;;;;;;;;;;;;19.76;47.20;95206.81;2057199;28;1129;-49
2022/06/20 04:31:12;;;;;;;;;;;;;;;19.72;47.10;95208.25;2057555;28;1009;-54
2022/06/20 04:32:18;;;;;;;;;;;;;;;19.65;47.44;95209.03;2057602;28;1117;-50
2022/06/20 04:33:27;;;;;;;;;;;;;;;19.74;47.63;95212.34;2057149;28;1172;-53
2022/06/20 04:34:35;;;;;;;;;;;;;;;19.74;47.32;95214.19;2057638;28;1097;-51
2022/06/20 04:35:39;;;;;;;;;;;;;;;19.75;47.39;95216.69;2051854;28;1248;-51
2022/06/20 04:36:47;;;;;;;;;;;;;;;19.75;47.26;95214.00;2051834;28;1109;-51
2022/06/20 04:37:53;;;;;;;;;;;;;;;19.74;47.42;95211.53;2056868;28;1073;-53
2022/06/20 04:38:58;;;;;;;;;;;;;;;19.76;47.18;95217.50;2056725;28;1097;-54
2022/06/20 04:40:04;;;;;;;;;;;;;;;19.77;46.60;95216.47;2056362;28;1906;-54
2022/06/20 04:41:11;;;;;;;;;;;;;;;19.78;46.77;95218.94;2056781;28;1061;-53
2022/06/20 04:42:18;;;;;;;;;;;;;;;19.80;46.93;95213.38;2056752;28;1128;-55
2022/06/20 04:43:24;;;;;;;;;;;;;;;19.84;46.67;95202.13;2056748;28;1117;-51
2022/06/20 04:44:31;;;;;;;;;;;;;;;19.81;46.74;95202.53;2056560;28;1274;-51
2022/06/20 04:45:38;;;;;;;;;;;;;;;19.79;46.74;95199.25;2056891;28;1038;-55
2022/06/20 04:46:43;;;;;;;;;;;;;;;19.85;46.69;95201.09;2052177;28;1044;-52
2022/06/20 04:47:48;;;;;;;;;;;;;;;19.86;46.61;95199.25;2051479;28;1318;-53
2022/06/20 04:48:51;;;;;;;;;;;;;;;19.89;46.33;95205.00;2056666;28;2073;-52
2022/06/20 04:49:54;;;;;;;;;;;;;;;19.88;46.08;95197.19;2056805;28;1002;-52
2022/06/20 04:50:58;;;;;;;;;;;;;;;19.88;46.44;95207.88;2057482;28;1014;-53
2022/06/20 04:52:02;;;;;;;;;;;;;;;19.92;46.17;95202.94;2057483;28;1148;-70
2022/06/20 04:53:06;;;;;;;;;;;;;;;19.80;45.61;95200.06;2057318;28;1109;-53
2022/06/20 04:54:13;;;;;;;;;;;;;;;19.87;46.01;95199.06;2057560;28;1015;-53
2022/06/20 04:55:17;;;;;;;;;;;;;;;19.78;45.62;95207.47;2057022;28;1275;-55
2022/06/20 04:56:26;;;;;;;;;;;;;;;19.76;45.83;95199.66;2057499;28;1014;-52
2022/06/20 04:57:31;;;;;;;;;;;;;;;19.81;46.21;95196.38;2057331;28;1282;-53
2022/06/20 04:58:36;;;;;;;;;;;;;;;19.88;46.30;95190.03;2049590;28;1350;-53
2022/06/20 04:59:39;;;;;;;;;;;;;;;19.85;46.23;95194.94;2057222;28;1851;-48
2022/06/20 05:00:42;;;;;;;;;;;;;;;19.97;46.93;95192.50;2057373;28;1979;-53
2022/06/20 05:01:45;;;;;;;;;;;;;;;20.03;46.75;95189.00;2057454;28;2086;-53
2022/06/20 05:02:49;;;;;;;;;;;;;;;20.01;46.53;95191.09;2056934;28;1268;-53
2022/06/20 05:03:56;;;;;;;;;;;;;;;20.05;46.84;95181.63;2057618;28;1069;-55
2022/06/20 05:05:04;;;;;;;;;;;;;;;20.04;46.29;95196.81;2057549;28;1049;-55
2022/06/20 05:06:10;;;;;;;;;;;;;;;20.06;46.61;95196.59;2057427;28;2082;-53
2022/06/20 05:07:14;;;;;;;;;;;;;;;20.06;46.17;95196.59;2057309;28;1086;-56
2022/06/20 05:08:17;;;;;;;;;;;;;;;20.08;46.22;95191.88;2058586;28;1157;-54
2022/06/20 05:09:23;;;;;;;;;;;;;;;20.10;46.06;95195.19;2055622;28;1114;-54
2022/06/20 05:10:29;;;;;;;;;;;;;;;20.05;45.85;95187.78;2061951;28;1091;-53
2022/06/20 05:11:35;;;;;;;;;;;;;;;20.06;46.27;95191.25;2067127;28;1088;-50
2022/06/20 05:12:39;;;;;;;;;;;;;;;20.10;45.97;95195.19;2066921;28;1105;-50
2022/06/20 05:13:44;;;;;;;;;;;;;;;20.13;45.82;95193.97;2066933;28;1109;-53
2022/06/20 05:14:49;;;;;;;;;;;;;;;20.12;46.31;95198.47;2067014;28;1088;-51
2022/06/20 05:15:53;;;;;;;;;;;;;;;20.15;46.55;95198.06;2067069;28;1138;-52
2022/06/20 05:16:57;;;;;;;;;;;;;;;20.17;46.22;95193.31;2066401;28;1100;-54
2022/06/20 05:18:04;;;;;;;;;;;;;;;20.17;45.93;95189.84;2066748;28;1112;-53
2022/06/20 05:19:09;;;;;;;;;;;;;;;20.28;46.15;95187.38;2066934;28;1160;-54
2022/06/20 05:20:18;;;;;;;;;;;;;;;20.36;46.34;95196.22;2066845;28;1914;-49
2022/06/20 05:21:22;;;;;;;;;;;;;;;20.47;47.07;95200.97;2058003;28;1045;-54
2022/06/20 05:22:27;;;;;;;;;;;;;;;20.54;47.02;95196.44;2066669;28;1163;-53
2022/06/20 05:23:33;;;;;;;;;;;;;;;20.61;47.01;95202.59;2067106;28;1026;-54
2022/06/20 05:24:37;;;;;;;;;;;;;;;20.55;45.68;95203.44;2066459;28;1352;-53
2022/06/20 05:25:41;;;;;;;;;;;;;;;20.52;45.83;95198.50;2067055;28;1037;-52
2022/06/20 05:26:45;;;;;;;;;;;;;;;20.53;45.68;95195.63;2066785;28;1124;-54
2022/06/20 05:27:50;;;;;;;;;;;;;;;20.54;46.10;95210.63;2066606;28;1233;-53
2022/06/20 05:28:55;;;;;;;;;;;;;;;20.59;46.61;95203.84;2066845;28;1152;-52
2022/06/20 05:30:00;;;;;;;;;;;;;;;20.65;46.28;95203.81;2066861;28;1105;-53
2022/06/20 05:31:03;;;;;;;;;;;;;;;20.71;46.06;95205.66;2066968;28;1057;-52
2022/06/20 05:32:06;;;;;;;;;;;;;;;20.72;45.86;95203.81;2061778;28;1053;-52
2022/06/20 05:33:17;;;;;;;;;;;;;;;20.77;46.26;95196.00;2061872;28;1160;-54
2022/06/20 05:34:22;;;;;;;;;;;;;;;20.83;45.91;95197.84;2066877;28;1219;-60
2022/06/20 05:35:29;;;;;;;;;;;;;;;20.93;46.42;95194.75;2066780;28;1078;-53
2022/06/20 05:36:36;;;;;;;;;;;;;;;21.00;46.40;95200.91;2066804;28;1022;-53
2022/06/20 05:37:40;;;;;;;;;;;;;;;21.05;45.34;95195.72;2066766;28;1108;-56
2022/06/20 05:38:45;;;;;;;;;;;;;;;21.04;44.97;95186.06;2066758;28;1180;-54
2022/06/20 05:39:48;;;;;;;;;;;;;;;21.02;44.95;95186.28;2066351;28;1097;-52
2022/06/20 05:40:53;;;;;;;;;;;;;;;21.02;44.88;95194.28;2066703;28;1983;-52
2022/06/20 05:42:01;;;;;;;;;;;;;;;21.02;45.07;95180.94;2066887;28;1192;-55
2022/06/20 05:43:06;;;;;;;;;;;;;;;21.04;44.75;95191.41;2066745;28;1073;-52
2022/06/20 05:44:09;;;;;;;;;;;;;;;21.06;45.03;95185.84;2057723;28;1103;-52
2022/06/20 05:45:16;;;;;;;;;;;;;;;21.07;45.16;95191.00;2066528;28;1179;-54
2022/06/20 05:46:23;;;;;;;;;;;;;;;21.12;44.65;95190.38;2066874;28;1012;-53
2022/06/20 05:47:26;;;;;;;;;;;;;;;21.19;44.30;95191.19;2066401;28;1031;-51